createdAt,value
2024-03-19T00:00:39.514Z,0.00
2024-03-19T00:01:39.515Z,0.00
2024-03-19T00:02:39.531Z,0.00
2024-03-19T00:03:42.461Z,0.00
2024-03-19T00:04:39.460Z,0.00
2024-03-19T00:05:39.444Z,0.00
2024-03-19T00:06:39.442Z,0.00
2024-03-19T00:07:39.419Z,0.00
2024-03-19T00:08:39.428Z,0.00
2024-03-19T00:09:39.412Z,0.00
2024-03-19T00:10:39.406Z,0.00
2024-03-19T00:11:39.379Z,0.00
2024-03-19T00:12:39.364Z,0.00
2024-03-19T00:13:39.372Z,0.00
2024-03-19T00:14:39.374Z,0.00
2024-03-19T00:15:39.371Z,0.00
2024-03-19T00:16:39.325Z,0.00
2024-03-19T00:17:39.326Z,0.00
2024-03-19T00:18:42.340Z,0.00
2024-03-19T00:19:39.296Z,0.00
2024-03-19T00:20:39.272Z,0.00
2024-03-19T00:21:39.291Z,0.00
2024-03-19T00:22:39.310Z,0.00
2024-03-19T00:23:39.272Z,0.00
2024-03-19T00:24:39.250Z,0.00
2024-03-19T00:25:39.252Z,0.00
2024-03-19T00:26:39.231Z,0.00
2024-03-19T00:27:39.209Z,0.00
2024-03-19T00:28:39.219Z,0.00
2024-03-19T00:29:39.228Z,0.00
2024-03-19T00:30:39.188Z,0.00
2024-03-19T00:31:39.190Z,0.00
2024-03-19T00:32:39.189Z,0.00
2024-03-19T00:33:42.160Z,0.00
2024-03-19T00:34:39.134Z,0.00
2024-03-19T00:35:39.128Z,0.00
2024-03-19T00:36:39.142Z,0.00
2024-03-19T00:37:39.104Z,0.00
2024-03-19T00:38:39.123Z,0.00
2024-03-19T00:39:39.105Z,0.00
2024-03-19T00:40:39.126Z,0.00
2024-03-19T00:41:39.078Z,0.00
2024-03-19T00:42:39.086Z,0.00
2024-03-19T00:43:39.068Z,0.00
2024-03-19T00:44:39.076Z,0.00
2024-03-19T00:45:39.039Z,0.00
2024-03-19T00:46:39.029Z,0.00
2024-03-19T00:47:39.032Z,0.00
2024-03-19T00:48:41.987Z,0.00
2024-03-19T00:49:39.008Z,0.00
2024-03-19T00:50:39.027Z,0.00
2024-03-19T00:51:38.992Z,0.00
2024-03-19T00:52:38.968Z,0.00
2024-03-19T00:53:38.967Z,0.00
2024-03-19T00:54:38.926Z,0.00
2024-03-19T00:55:38.919Z,0.00
2024-03-19T00:56:38.934Z,0.00
2024-03-19T00:57:38.924Z,0.00
2024-03-19T00:58:38.883Z,0.00
2024-03-19T00:59:38.963Z,0.00
2024-03-19T01:00:38.895Z,0.00
2024-03-19T01:01:38.881Z,0.00
2024-03-19T01:02:38.906Z,0.00
2024-03-19T01:03:41.829Z,0.00
2024-03-19T01:04:44.396Z,0.00
2024-03-19T01:05:38.854Z,0.00
2024-03-19T01:06:38.818Z,0.00
2024-03-19T01:07:38.813Z,0.00
2024-03-19T01:08:38.807Z,0.00
2024-03-19T01:09:38.785Z,0.00
2024-03-19T01:10:38.784Z,0.00
2024-03-19T01:11:38.783Z,0.00
2024-03-19T01:12:38.754Z,0.00
2024-03-19T01:13:38.753Z,0.00
2024-03-19T01:14:38.754Z,0.00
2024-03-19T01:15:38.716Z,0.00
2024-03-19T01:16:38.717Z,0.00
2024-03-19T01:17:38.716Z,0.00
2024-03-19T01:18:42.036Z,0.00
2024-03-19T01:19:38.694Z,0.00
2024-03-19T01:20:38.718Z,0.00
2024-03-19T01:21:38.653Z,0.00
2024-03-19T01:22:38.634Z,0.00
2024-03-19T01:23:38.697Z,0.00
2024-03-19T01:24:38.631Z,0.00
2024-03-19T01:25:38.609Z,0.00
2024-03-19T01:26:38.650Z,0.00
2024-03-19T01:27:38.604Z,0.00
2024-03-19T01:28:38.589Z,0.00
2024-03-19T01:29:38.595Z,0.00
2024-03-19T01:31:38.540Z,0.00
2024-03-19T01:32:38.739Z,0.00
2024-03-19T01:33:41.519Z,0.00
2024-03-19T01:34:38.509Z,0.00
2024-03-19T01:35:38.520Z,0.00
2024-03-19T01:36:38.518Z,0.00
2024-03-19T01:37:38.483Z,0.00
2024-03-19T01:38:38.485Z,0.00
2024-03-19T01:39:38.456Z,0.00
2024-03-19T01:40:38.470Z,0.00
2024-03-19T01:41:38.487Z,0.00
2024-03-19T01:42:38.423Z,0.00
2024-03-19T01:43:38.433Z,0.00
2024-03-19T01:44:39.750Z,0.00
2024-03-19T01:45:38.410Z,0.00
2024-03-19T01:46:38.387Z,0.00
2024-03-19T01:47:38.406Z,0.00
2024-03-19T01:48:41.390Z,0.00
2024-03-19T01:49:38.363Z,0.00
2024-03-19T01:50:38.356Z,0.00
2024-03-19T01:51:38.369Z,0.00
2024-03-19T01:52:38.336Z,0.00
2024-03-19T01:53:38.338Z,0.00
2024-03-19T01:54:38.294Z,0.00
2024-03-19T01:55:38.286Z,0.00
2024-03-19T01:56:38.312Z,0.00
2024-03-19T01:57:38.263Z,0.00
2024-03-19T01:58:38.286Z,0.00
2024-03-19T01:59:38.331Z,0.00
2024-03-19T02:00:38.245Z,0.00
2024-03-19T02:01:38.231Z,0.00
2024-03-19T02:02:38.212Z,0.00
2024-03-19T02:03:41.228Z,0.00
2024-03-19T02:04:38.197Z,0.00
2024-03-19T02:05:38.195Z,0.00
2024-03-19T02:06:38.185Z,0.00
2024-03-19T02:07:38.175Z,0.00
2024-03-19T02:08:38.217Z,0.00
2024-03-19T02:09:38.166Z,0.00
2024-03-19T02:10:38.187Z,0.00
2024-03-19T02:11:38.163Z,0.00
2024-03-19T02:12:38.131Z,0.00
2024-03-19T02:13:38.102Z,0.00
2024-03-19T02:14:38.106Z,0.00
2024-03-19T02:15:38.076Z,0.00
2024-03-19T02:16:38.075Z,0.00
2024-03-19T02:17:38.088Z,0.00
2024-03-19T02:18:41.065Z,0.00
2024-03-19T02:19:38.059Z,0.00
2024-03-19T02:21:38.211Z,0.00
2024-03-19T02:22:38.028Z,0.00
2024-03-19T02:23:38.034Z,0.00
2024-03-19T02:24:38.005Z,0.00
2024-03-19T02:25:38.931Z,0.00
2024-03-19T02:26:38.026Z,0.00
2024-03-19T02:27:37.951Z,0.00
2024-03-19T02:28:37.938Z,0.00
2024-03-19T02:29:37.977Z,0.00
2024-03-19T02:30:37.951Z,0.00
2024-03-19T02:31:37.934Z,0.00
2024-03-19T02:32:37.967Z,0.00
2024-03-19T02:33:40.887Z,0.00
2024-03-19T02:34:37.883Z,0.00
2024-03-19T02:35:37.893Z,0.00
2024-03-19T02:36:37.860Z,0.00
2024-03-19T02:38:37.872Z,0.00
2024-03-19T02:39:37.838Z,0.00
2024-03-19T02:40:37.843Z,0.00
2024-03-19T02:41:37.846Z,0.00
2024-03-19T02:42:37.802Z,0.00
2024-03-19T02:43:38.306Z,0.00
2024-03-19T02:45:37.762Z,0.00
2024-03-19T02:46:37.779Z,0.00
2024-03-19T02:47:37.753Z,0.00
2024-03-19T02:48:40.747Z,0.00
2024-03-19T02:50:37.774Z,0.00
2024-03-19T02:51:37.703Z,0.00
2024-03-19T02:52:37.720Z,0.00
2024-03-19T02:53:37.694Z,0.00
2024-03-19T02:54:37.676Z,0.00
2024-03-19T02:55:37.663Z,0.00
2024-03-19T02:56:37.664Z,0.00
2024-03-19T02:57:37.660Z,0.00
2024-03-19T02:58:37.651Z,0.00
2024-03-19T02:59:37.638Z,0.00
2024-03-19T03:01:37.620Z,0.00
2024-03-19T03:02:37.606Z,0.00
2024-03-19T03:03:40.598Z,0.00
2024-03-19T03:04:37.597Z,0.00
2024-03-19T03:05:37.557Z,0.00
2024-03-19T03:06:37.576Z,0.00
2024-03-19T03:07:37.559Z,0.00
2024-03-19T03:08:37.604Z,0.00
2024-03-19T03:09:37.532Z,0.00
2024-03-19T03:10:37.547Z,0.00
2024-03-19T03:11:37.553Z,0.00
2024-03-19T03:12:37.486Z,0.00
2024-03-19T03:13:37.481Z,0.00
2024-03-19T03:14:37.465Z,0.00
2024-03-19T03:15:37.470Z,0.00
2024-03-19T03:16:37.482Z,0.00
2024-03-19T03:17:37.465Z,0.00
2024-03-19T03:18:40.458Z,0.00
2024-03-19T03:19:37.421Z,0.00
2024-03-19T03:20:37.416Z,0.00
2024-03-19T03:21:37.569Z,0.00
2024-03-19T03:22:37.389Z,0.00
2024-03-19T03:23:37.397Z,0.00
2024-03-19T03:24:37.391Z,0.00
2024-03-19T03:25:37.353Z,0.00
2024-03-19T03:26:37.430Z,0.00
2024-03-19T03:27:37.340Z,0.00
2024-03-19T03:28:37.348Z,0.00
2024-03-19T03:29:37.406Z,0.00
2024-03-19T03:30:37.301Z,0.00
2024-03-19T03:31:37.290Z,0.00
2024-03-19T03:32:38.827Z,0.00
2024-03-19T03:33:40.288Z,0.00
2024-03-19T03:34:37.275Z,0.00
2024-03-19T03:35:37.252Z,0.00
2024-03-19T03:36:37.263Z,0.00
2024-03-19T03:37:37.246Z,0.00
2024-03-19T03:38:37.237Z,0.00
2024-03-19T03:39:37.230Z,0.00
2024-03-19T03:40:37.218Z,0.00
2024-03-19T03:41:37.190Z,0.00
2024-03-19T03:42:53.861Z,0.00
2024-03-19T03:43:38.200Z,0.00
2024-03-19T03:44:37.167Z,0.00
2024-03-19T03:45:37.145Z,0.00
2024-03-19T03:46:37.152Z,0.00
2024-03-19T03:47:37.143Z,0.00
2024-03-19T03:48:40.208Z,0.00
2024-03-19T03:49:37.107Z,0.00
2024-03-19T03:50:37.108Z,0.00
2024-03-19T03:51:37.087Z,0.00
2024-03-19T03:52:37.094Z,0.00
2024-03-19T03:53:37.062Z,0.00
2024-03-19T03:54:37.049Z,0.00
2024-03-19T03:56:37.050Z,0.00
2024-03-19T03:57:37.012Z,0.00
2024-03-19T03:58:37.000Z,0.00
2024-03-19T03:59:37.275Z,0.00
2024-03-19T04:00:36.986Z,0.00
2024-03-19T04:01:36.988Z,0.00
2024-03-19T04:02:36.978Z,0.00
2024-03-19T04:03:39.950Z,0.00
2024-03-19T04:04:36.966Z,0.00
2024-03-19T04:05:36.948Z,0.00
2024-03-19T04:06:36.927Z,0.00
2024-03-19T04:07:36.922Z,0.00
2024-03-19T04:08:36.915Z,0.00
2024-03-19T04:09:36.913Z,0.00
2024-03-19T04:10:36.917Z,0.00
2024-03-19T04:11:36.955Z,0.00
2024-03-19T04:12:36.869Z,0.00
2024-03-19T04:13:36.952Z,0.00
2024-03-19T04:14:36.831Z,0.00
2024-03-19T04:16:36.861Z,0.00
2024-03-19T04:17:36.909Z,0.00
2024-03-19T04:18:39.790Z,0.00
2024-03-19T04:19:36.876Z,0.00
2024-03-19T04:20:36.881Z,0.00
2024-03-19T04:21:36.898Z,0.00
2024-03-19T04:22:36.810Z,0.00
2024-03-19T04:23:36.790Z,0.00
2024-03-19T04:24:36.779Z,0.00
2024-03-19T04:25:36.805Z,0.00
2024-03-19T04:26:36.780Z,0.00
2024-03-19T04:27:36.692Z,0.00
2024-03-19T04:28:36.681Z,0.00
2024-03-19T04:29:36.679Z,0.00
2024-03-19T04:30:36.674Z,0.00
2024-03-19T04:31:36.680Z,0.00
2024-03-19T04:32:36.694Z,0.00
2024-03-19T04:33:40.982Z,0.00
2024-03-19T04:34:37.646Z,0.00
2024-03-19T04:35:36.625Z,0.00
2024-03-19T04:36:36.625Z,0.00
2024-03-19T04:37:36.614Z,0.00
2024-03-19T04:38:36.685Z,0.00
2024-03-19T04:39:36.572Z,0.00
2024-03-19T04:40:36.569Z,0.00
2024-03-19T04:41:36.587Z,0.00
2024-03-19T04:42:36.533Z,0.00
2024-03-19T04:43:36.704Z,0.00
2024-03-19T04:44:36.528Z,0.00
2024-03-19T04:45:36.519Z,0.00
2024-03-19T04:46:36.505Z,0.00
2024-03-19T04:47:36.478Z,0.00
2024-03-19T04:48:39.487Z,0.00
2024-03-19T04:49:36.464Z,0.00
2024-03-19T04:50:36.461Z,0.00
2024-03-19T04:51:36.438Z,0.00
2024-03-19T04:52:36.441Z,0.00
2024-03-19T04:53:36.442Z,0.00
2024-03-19T04:54:36.422Z,0.00
2024-03-19T04:55:36.395Z,0.00
2024-03-19T04:56:36.401Z,0.00
2024-03-19T04:57:36.395Z,0.00
2024-03-19T04:58:36.332Z,0.00
2024-03-19T04:59:36.372Z,0.00
2024-03-19T05:00:36.387Z,0.00
2024-03-19T05:01:36.331Z,0.00
2024-03-19T05:02:36.271Z,0.00
2024-03-19T05:03:39.359Z,0.00
2024-03-19T05:04:36.306Z,0.00
2024-03-19T05:05:36.253Z,0.00
2024-03-19T05:06:36.214Z,0.00
2024-03-19T05:07:36.244Z,0.00
2024-03-19T05:08:36.211Z,0.00
2024-03-19T05:09:36.209Z,0.00
2024-03-19T05:10:36.210Z,0.00
2024-03-19T05:11:36.170Z,0.00
2024-03-19T05:12:36.172Z,0.00
2024-03-19T05:13:36.161Z,0.00
2024-03-19T05:14:36.156Z,0.00
2024-03-19T05:15:36.145Z,0.00
2024-03-19T05:16:37.091Z,0.00
2024-03-19T05:17:36.120Z,0.00
2024-03-19T05:18:39.158Z,0.00
2024-03-19T05:19:36.083Z,0.00
2024-03-19T05:20:36.091Z,0.00
2024-03-19T05:21:36.094Z,0.00
2024-03-19T05:22:36.051Z,0.00
2024-03-19T05:23:36.062Z,5.62
2024-03-19T05:25:36.014Z,5.62
2024-03-19T05:26:36.009Z,5.62
2024-03-19T05:27:35.995Z,5.62
2024-03-19T05:28:36.004Z,5.62
2024-03-19T05:29:36.996Z,11.25
2024-03-19T05:30:36.013Z,11.25
2024-03-19T05:31:35.973Z,11.25
2024-03-19T05:32:35.937Z,16.88
2024-03-19T05:33:38.930Z,16.88
2024-03-19T05:34:35.944Z,16.88
2024-03-19T05:35:35.933Z,16.88
2024-03-19T05:36:35.904Z,16.88
2024-03-19T05:38:35.877Z,22.50
2024-03-19T05:39:35.891Z,22.50
2024-03-19T05:40:35.880Z,22.50
2024-03-19T05:41:35.967Z,28.12
2024-03-19T05:42:36.800Z,33.75
2024-03-19T05:43:35.821Z,39.38
2024-03-19T05:44:35.812Z,39.38
2024-03-19T05:45:35.814Z,39.38
2024-03-19T05:46:35.797Z,45.00
2024-03-19T05:47:35.789Z,45.00
2024-03-19T05:48:38.794Z,50.62
2024-03-19T05:49:35.769Z,50.62
2024-03-19T05:50:35.781Z,56.25
2024-03-19T05:51:35.795Z,61.88
2024-03-19T05:52:35.732Z,61.88
2024-03-19T05:53:35.724Z,67.50
2024-03-19T05:54:35.710Z,67.50
2024-03-19T05:55:35.712Z,73.12
2024-03-19T05:56:35.720Z,73.12
2024-03-19T05:57:35.681Z,73.12
2024-03-19T05:58:35.681Z,78.75
2024-03-19T05:59:35.717Z,78.75
2024-03-19T06:00:35.669Z,84.38
2024-03-19T06:01:35.631Z,90.00
2024-03-19T06:02:35.648Z,90.00
2024-03-19T06:03:38.615Z,95.62
2024-03-19T06:04:35.617Z,101.25
2024-03-19T06:05:35.585Z,106.88
2024-03-19T06:06:35.593Z,112.50
2024-03-19T06:07:35.580Z,123.75
2024-03-19T06:08:35.592Z,123.75
2024-03-19T06:09:35.563Z,129.38
2024-03-19T06:10:35.539Z,135.00
2024-03-19T06:11:35.548Z,140.62
2024-03-19T06:12:35.512Z,146.25
2024-03-19T06:13:35.546Z,157.50
2024-03-19T06:14:35.514Z,168.75
2024-03-19T06:15:35.501Z,174.38
2024-03-19T06:16:35.487Z,180.00
2024-03-19T06:17:35.490Z,180.00
2024-03-19T06:18:38.465Z,196.88
2024-03-19T06:19:35.464Z,191.25
2024-03-19T06:20:35.446Z,185.62
2024-03-19T06:21:35.445Z,191.25
2024-03-19T06:22:35.470Z,196.88
2024-03-19T06:23:35.395Z,213.75
2024-03-19T06:24:35.393Z,213.75
2024-03-19T06:25:35.398Z,208.12
2024-03-19T06:26:35.365Z,202.50
2024-03-19T06:27:35.375Z,208.12
2024-03-19T06:28:35.365Z,208.12
2024-03-19T06:29:35.378Z,208.12
2024-03-19T06:30:35.317Z,213.75
2024-03-19T06:31:35.331Z,225.00
2024-03-19T06:32:35.307Z,230.62
2024-03-19T06:33:38.310Z,225.00
2024-03-19T06:34:35.305Z,225.00
2024-03-19T06:35:35.283Z,230.62
2024-03-19T06:36:37.637Z,225.00
2024-03-19T06:37:35.265Z,230.62
2024-03-19T06:38:35.232Z,225.00
2024-03-19T06:39:35.221Z,225.00
2024-03-19T06:40:35.236Z,230.62
2024-03-19T06:41:35.216Z,230.62
2024-03-19T06:42:35.215Z,236.25
2024-03-19T06:43:35.183Z,236.25
2024-03-19T06:44:36.153Z,230.62
2024-03-19T06:46:35.144Z,241.88
2024-03-19T06:47:35.143Z,241.88
2024-03-19T06:48:38.138Z,247.50
2024-03-19T06:49:35.143Z,253.12
2024-03-19T06:50:35.109Z,264.38
2024-03-19T06:51:35.122Z,281.25
2024-03-19T06:52:35.086Z,298.12
2024-03-19T06:53:35.074Z,303.75
2024-03-19T06:54:35.064Z,309.38
2024-03-19T06:55:35.075Z,320.62
2024-03-19T06:56:35.062Z,326.25
2024-03-19T06:57:35.036Z,331.88
2024-03-19T06:58:35.045Z,343.12
2024-03-19T06:59:35.015Z,354.38
2024-03-19T07:00:35.057Z,365.62
2024-03-19T07:01:37.815Z,388.12
2024-03-19T07:02:34.997Z,399.38
2024-03-19T07:03:38.960Z,393.75
2024-03-19T07:04:34.972Z,393.75
2024-03-19T07:05:34.957Z,388.12
2024-03-19T07:06:34.958Z,376.88
2024-03-19T07:07:34.946Z,376.88
2024-03-19T07:08:34.915Z,382.50
2024-03-19T07:09:34.921Z,382.50
2024-03-19T07:10:34.925Z,382.50
2024-03-19T07:11:34.907Z,371.25
2024-03-19T07:12:34.894Z,371.25
2024-03-19T07:13:34.884Z,365.62
2024-03-19T07:14:34.876Z,365.62
2024-03-19T07:15:34.845Z,365.62
2024-03-19T07:16:34.853Z,382.50
2024-03-19T07:17:34.829Z,388.12
2024-03-19T07:18:37.818Z,376.88
2024-03-19T07:19:34.819Z,365.62
2024-03-19T07:20:34.812Z,365.62
2024-03-19T07:21:34.804Z,382.50
2024-03-19T07:22:34.787Z,382.50
2024-03-19T07:23:34.761Z,376.88
2024-03-19T07:24:34.760Z,354.38
2024-03-19T07:25:34.760Z,376.88
2024-03-19T07:26:34.748Z,433.12
2024-03-19T07:27:34.782Z,455.62
2024-03-19T07:28:34.730Z,444.38
2024-03-19T07:29:34.694Z,427.50
2024-03-19T07:30:34.695Z,427.50
2024-03-19T07:31:34.673Z,450.00
2024-03-19T07:32:34.862Z,472.50
2024-03-19T07:33:37.702Z,472.50
2024-03-19T07:34:34.647Z,450.00
2024-03-19T07:35:34.662Z,427.50
2024-03-19T07:36:34.632Z,421.88
2024-03-19T07:37:34.617Z,427.50
2024-03-19T07:38:34.622Z,433.12
2024-03-19T07:39:34.640Z,450.00
2024-03-19T07:40:34.584Z,478.12
2024-03-19T07:41:34.587Z,489.38
2024-03-19T07:42:34.587Z,500.62
2024-03-19T07:43:34.595Z,500.62
2024-03-19T07:44:34.590Z,500.62
2024-03-19T07:45:34.527Z,511.88
2024-03-19T07:46:34.568Z,478.12
2024-03-19T07:47:34.543Z,551.25
2024-03-19T07:48:37.540Z,551.25
2024-03-19T07:49:34.509Z,545.62
2024-03-19T07:50:34.481Z,540.00
2024-03-19T07:51:34.473Z,517.50
2024-03-19T07:52:34.489Z,579.38
2024-03-19T07:53:34.475Z,540.00
2024-03-19T07:54:34.454Z,534.38
2024-03-19T07:55:34.439Z,511.88
2024-03-19T07:56:34.421Z,506.25
2024-03-19T07:57:34.430Z,500.62
2024-03-19T07:58:34.451Z,472.50
2024-03-19T07:59:35.926Z,472.50
2024-03-19T08:00:48.486Z,495.00
2024-03-19T08:01:34.458Z,478.12
2024-03-19T08:02:34.380Z,461.25
2024-03-19T08:03:38.743Z,478.12
2024-03-19T08:04:35.366Z,500.62
2024-03-19T08:05:34.343Z,562.50
2024-03-19T08:06:34.338Z,601.88
2024-03-19T08:07:34.303Z,613.12
2024-03-19T08:08:34.293Z,641.25
2024-03-19T08:10:34.307Z,877.50
2024-03-19T08:11:34.283Z,1170.00
2024-03-19T08:12:34.274Z,1147.50
2024-03-19T08:13:34.266Z,990.00
2024-03-19T08:14:34.261Z,900.00
2024-03-19T08:15:34.238Z,826.88
2024-03-19T08:17:34.210Z,686.25
2024-03-19T08:18:37.201Z,658.12
2024-03-19T08:19:34.193Z,708.75
2024-03-19T08:20:34.168Z,838.12
2024-03-19T08:21:34.242Z,1001.25
2024-03-19T08:22:36.426Z,787.50
2024-03-19T08:23:34.185Z,630.00
2024-03-19T08:24:34.130Z,601.88
2024-03-19T08:25:34.123Z,635.62
2024-03-19T08:26:34.152Z,601.88
2024-03-19T08:27:34.117Z,646.88
2024-03-19T08:28:34.111Z,641.25
2024-03-19T08:29:35.499Z,630.00
2024-03-19T08:30:34.093Z,562.50
2024-03-19T08:32:34.054Z,495.00
2024-03-19T08:33:37.052Z,523.12
2024-03-19T08:35:34.014Z,680.62
2024-03-19T08:36:33.999Z,675.00
2024-03-19T08:37:34.009Z,821.25
2024-03-19T08:38:33.988Z,1147.50
2024-03-19T08:39:33.972Z,2008.12
2024-03-19T08:40:33.982Z,2120.62
2024-03-19T08:41:33.951Z,1670.62
2024-03-19T08:42:33.957Z,1389.38
2024-03-19T08:43:33.941Z,1147.50
2024-03-19T08:44:33.975Z,905.62
2024-03-19T08:45:33.916Z,1231.88
2024-03-19T08:46:33.897Z,1518.75
2024-03-19T08:47:33.929Z,2171.25
2024-03-19T08:48:36.945Z,2255.62
2024-03-19T08:49:33.893Z,2250.00
2024-03-19T08:51:33.848Z,2008.12
2024-03-19T08:53:33.847Z,1366.88
2024-03-19T08:54:33.832Z,1220.62
2024-03-19T08:55:33.834Z,1963.12
2024-03-19T08:56:33.791Z,1372.50
2024-03-19T08:57:33.803Z,1192.50
2024-03-19T08:58:35.163Z,956.25
2024-03-19T08:59:33.774Z,1012.50
2024-03-19T09:00:33.781Z,1040.62
2024-03-19T09:01:33.755Z,978.75
2024-03-19T09:02:33.755Z,1080.00
2024-03-19T09:03:36.749Z,1046.25
2024-03-19T09:04:36.536Z,1468.12
2024-03-19T09:05:33.713Z,2278.12
2024-03-19T09:06:33.685Z,1957.50
2024-03-19T09:07:33.694Z,1816.88
2024-03-19T09:08:33.687Z,2891.25
2024-03-19T09:09:33.690Z,1040.62
2024-03-19T09:11:33.652Z,590.62
2024-03-19T09:12:33.650Z,568.12
2024-03-19T09:14:33.598Z,613.12
2024-03-19T09:15:33.610Z,663.75
2024-03-19T09:16:33.581Z,714.38
2024-03-19T09:18:36.574Z,860.62
2024-03-19T09:19:33.561Z,826.88
2024-03-19T09:20:33.605Z,804.38
2024-03-19T09:21:33.531Z,798.75
2024-03-19T09:22:33.531Z,798.75
2024-03-19T09:23:33.533Z,793.12
2024-03-19T09:24:33.567Z,759.38
2024-03-19T09:25:33.488Z,736.88
2024-03-19T09:26:33.500Z,736.88
2024-03-19T09:27:33.490Z,725.62
2024-03-19T09:28:33.487Z,731.25
2024-03-19T09:29:33.457Z,714.38
2024-03-19T09:30:33.452Z,675.00
2024-03-19T09:31:33.441Z,663.75
2024-03-19T09:32:33.464Z,680.62
2024-03-19T09:33:36.395Z,720.00
2024-03-19T09:34:33.424Z,691.88
2024-03-19T09:35:33.404Z,708.75
2024-03-19T09:36:33.365Z,691.88
2024-03-19T09:37:33.376Z,708.75
2024-03-19T09:38:33.350Z,708.75
2024-03-19T09:39:33.368Z,731.25
2024-03-19T09:41:33.343Z,708.75
2024-03-19T09:42:33.369Z,765.00
2024-03-19T09:43:33.308Z,759.38
2024-03-19T09:44:33.310Z,708.75
2024-03-19T09:45:33.284Z,720.00
2024-03-19T09:46:33.277Z,720.00
2024-03-19T09:47:33.279Z,725.62
2024-03-19T09:48:36.271Z,748.12
2024-03-19T09:49:33.232Z,720.00
2024-03-19T09:50:33.257Z,742.50
2024-03-19T09:51:33.345Z,753.75
2024-03-19T09:52:33.215Z,725.62
2024-03-19T09:53:33.400Z,646.88
2024-03-19T09:54:33.200Z,489.38
2024-03-19T09:55:33.182Z,444.38
2024-03-19T09:56:33.176Z,483.75
2024-03-19T09:57:33.160Z,438.75
2024-03-19T09:59:33.147Z,691.88
2024-03-19T10:00:33.121Z,855.00
2024-03-19T10:01:33.117Z,883.12
2024-03-19T10:02:33.089Z,849.38
2024-03-19T10:03:36.100Z,883.12
2024-03-19T10:04:33.205Z,888.75
2024-03-19T10:05:33.076Z,849.38
2024-03-19T10:06:33.050Z,821.25
2024-03-19T10:07:33.058Z,855.00
2024-03-19T10:11:43.286Z,967.50
2024-03-19T10:12:43.109Z,990.00
2024-03-19T10:13:43.120Z,1023.75
2024-03-19T10:14:43.094Z,1074.38
2024-03-19T10:15:43.132Z,1018.12
2024-03-19T10:16:43.097Z,922.50
2024-03-19T10:17:43.136Z,894.38
2024-03-19T10:18:43.056Z,883.12
2024-03-19T10:19:43.037Z,871.88
2024-03-19T10:20:43.044Z,866.25
2024-03-19T10:21:43.041Z,967.50
2024-03-19T10:22:42.994Z,950.62
2024-03-19T10:23:46.047Z,1175.62
2024-03-19T10:24:42.999Z,1051.88
2024-03-19T10:26:43.003Z,900.00
2024-03-19T10:27:42.946Z,888.75
2024-03-19T10:28:42.950Z,883.12
2024-03-19T10:29:42.949Z,894.38
2024-03-19T10:30:43.001Z,905.62
2024-03-19T10:31:42.922Z,990.00
2024-03-19T10:32:42.888Z,1085.62
2024-03-19T10:33:42.885Z,1164.38
2024-03-19T10:34:42.877Z,1153.12
2024-03-19T10:35:42.898Z,1265.62
2024-03-19T10:36:42.875Z,1147.50
2024-03-19T10:37:42.973Z,1018.12
2024-03-19T10:38:45.839Z,911.25
2024-03-19T10:39:42.866Z,978.75
2024-03-19T10:40:42.834Z,1108.12
2024-03-19T10:41:42.799Z,1175.62
2024-03-19T10:42:42.816Z,1051.88
2024-03-19T10:43:42.795Z,1220.62
2024-03-19T10:44:42.760Z,1462.50
2024-03-19T10:45:42.770Z,1102.50
2024-03-19T10:46:42.740Z,2148.75
2024-03-19T10:47:42.750Z,2008.12
2024-03-19T10:48:42.765Z,2795.62
2024-03-19T10:49:42.753Z,2531.25
2024-03-19T10:50:42.710Z,2013.75
2024-03-19T10:51:44.190Z,1636.88
2024-03-19T10:52:43.679Z,1788.75
2024-03-19T10:55:42.671Z,1057.50
2024-03-19T10:56:42.719Z,1001.25
2024-03-19T10:57:42.657Z,973.12
2024-03-19T10:58:42.613Z,984.38
2024-03-19T10:59:42.605Z,1136.25
2024-03-19T11:00:42.612Z,1091.25
2024-03-19T11:01:42.600Z,922.50
2024-03-19T11:02:42.572Z,843.75
2024-03-19T11:03:42.577Z,855.00
2024-03-19T11:04:42.585Z,950.62
2024-03-19T11:05:42.557Z,1108.12
2024-03-19T11:06:42.535Z,1271.25
2024-03-19T11:07:44.397Z,1316.25
2024-03-19T11:08:45.510Z,1237.50
2024-03-19T11:09:42.536Z,1260.00
2024-03-19T11:10:42.539Z,1327.50
2024-03-19T11:11:42.499Z,1350.00
2024-03-19T11:12:42.496Z,1451.25
2024-03-19T11:13:42.477Z,1501.88
2024-03-19T11:15:42.445Z,1136.25
2024-03-19T11:17:42.412Z,2092.50
2024-03-19T11:18:42.403Z,2891.25
2024-03-19T11:19:42.412Z,2908.12
2024-03-19T11:20:42.425Z,2531.25
2024-03-19T11:22:42.371Z,2638.12
2024-03-19T11:23:45.354Z,2868.75
2024-03-19T11:25:42.363Z,2750.62
2024-03-19T11:26:42.414Z,3178.12
2024-03-19T11:27:42.322Z,1726.88
2024-03-19T11:28:42.330Z,2441.25
2024-03-19T11:29:42.311Z,2486.25
2024-03-19T11:30:42.285Z,2626.88
2024-03-19T11:32:42.410Z,2278.12
2024-03-19T11:33:42.240Z,2874.38
2024-03-19T11:35:42.243Z,2857.50
2024-03-19T11:36:42.228Z,1929.38
2024-03-19T11:37:42.216Z,2778.75
2024-03-19T11:38:45.192Z,1507.50
2024-03-19T11:40:42.192Z,1833.75
2024-03-19T11:41:44.198Z,1203.75
2024-03-19T11:42:42.168Z,2936.25
2024-03-19T11:43:42.136Z,2818.12
2024-03-19T11:44:42.125Z,2812.50
2024-03-19T11:45:42.116Z,2750.62
2024-03-19T11:46:42.100Z,2503.12
2024-03-19T11:47:42.092Z,2880.00
2024-03-19T11:48:42.373Z,2936.25
2024-03-19T11:49:42.073Z,3015.00
2024-03-19T11:50:42.101Z,2553.75
2024-03-19T11:51:42.072Z,2986.88
2024-03-19T11:52:42.062Z,3020.62
2024-03-19T11:53:45.091Z,2986.88
2024-03-19T11:55:42.012Z,2964.38
2024-03-19T11:56:42.042Z,2936.25
2024-03-19T11:57:41.991Z,2840.62
2024-03-19T11:58:41.982Z,2790.00
2024-03-19T11:59:41.979Z,2812.50
2024-03-19T12:00:41.954Z,2812.50
2024-03-19T12:01:41.944Z,2840.62
2024-03-19T12:02:41.954Z,2851.88
2024-03-19T12:03:41.945Z,2880.00
2024-03-19T12:04:41.979Z,2958.75
2024-03-19T12:05:41.931Z,3009.38
2024-03-19T12:06:41.903Z,3054.38
2024-03-19T12:07:41.902Z,3043.12
2024-03-19T12:08:44.981Z,2913.75
2024-03-19T12:09:41.878Z,2806.88
2024-03-19T12:11:41.859Z,2784.38
2024-03-19T12:12:41.859Z,2778.75
2024-03-19T12:13:41.840Z,2778.75
2024-03-19T12:15:41.796Z,2790.00
2024-03-19T12:16:41.780Z,2795.62
2024-03-19T12:17:41.808Z,2778.75
2024-03-19T12:18:41.804Z,2806.88
2024-03-19T12:19:41.776Z,2851.88
2024-03-19T12:21:41.739Z,2818.12
2024-03-19T12:22:41.729Z,2835.00
2024-03-19T12:23:44.743Z,2818.12
2024-03-19T12:24:41.707Z,2778.75
2024-03-19T12:25:41.692Z,2745.00
2024-03-19T12:26:41.703Z,2694.38
2024-03-19T12:27:41.661Z,2621.25
2024-03-19T12:28:41.676Z,2553.75
2024-03-19T12:29:41.654Z,2463.75
2024-03-19T12:30:41.634Z,2446.88
2024-03-19T12:31:41.813Z,2452.50
2024-03-19T12:32:41.632Z,2553.75
2024-03-19T12:33:41.611Z,2649.38
2024-03-19T12:34:41.598Z,2778.75
2024-03-19T12:35:41.581Z,2874.38
2024-03-19T12:36:41.572Z,2902.50
2024-03-19T12:37:41.585Z,2925.00
2024-03-19T12:38:44.572Z,2857.50
2024-03-19T12:39:41.557Z,2840.62
2024-03-19T12:41:44.952Z,2857.50
2024-03-19T12:42:41.529Z,2823.75
2024-03-19T12:43:41.535Z,2790.00
2024-03-19T12:44:41.507Z,2756.25
2024-03-19T12:46:41.486Z,2716.88
2024-03-19T12:47:41.500Z,2671.88
2024-03-19T12:48:41.465Z,2621.25
2024-03-19T12:49:41.445Z,2643.75
2024-03-19T12:50:41.438Z,2784.38
2024-03-19T12:51:41.432Z,2767.50
2024-03-19T12:52:41.426Z,2761.88
2024-03-19T12:53:44.394Z,2716.88
2024-03-19T12:54:41.392Z,2801.25
2024-03-19T12:56:41.356Z,2767.50
2024-03-19T12:57:41.388Z,2745.00
2024-03-19T12:58:41.358Z,2666.25
2024-03-19T12:59:41.328Z,2643.75
2024-03-19T13:00:41.347Z,2446.88
2024-03-19T13:01:41.325Z,2396.25
2024-03-19T13:02:41.323Z,2407.50
2024-03-19T13:03:41.310Z,2205.00
2024-03-19T13:04:41.275Z,1698.75
2024-03-19T13:05:41.316Z,1608.75
2024-03-19T13:06:41.269Z,1620.00
2024-03-19T13:08:44.258Z,1873.12
2024-03-19T13:09:41.233Z,1974.38
2024-03-19T13:10:41.237Z,2109.38
2024-03-19T13:11:44.034Z,2176.88
2024-03-19T13:12:41.200Z,2233.12
2024-03-19T13:13:41.179Z,2244.38
2024-03-19T13:14:41.835Z,2266.88
2024-03-19T13:16:41.145Z,2317.50
2024-03-19T13:17:41.180Z,2171.25
2024-03-19T13:19:41.156Z,2570.62
2024-03-19T13:21:41.099Z,2671.88
2024-03-19T13:22:41.091Z,2655.00
2024-03-19T13:23:44.070Z,2610.00
2024-03-19T13:24:41.104Z,2525.62
2024-03-19T13:25:41.086Z,2424.38
2024-03-19T13:26:41.044Z,2424.38
2024-03-19T13:27:41.033Z,2469.38
2024-03-19T13:28:41.041Z,2486.25
2024-03-19T13:29:41.058Z,2475.00